Time;durP1;ratioP1;P1;durP2;ratioP2;P2;SDS_P1;SDS_P2;PMS_P1;PMS_P2;Temp;Humidity;BMP_temperature;BMP_pressure;BME280_temperature;BME280_humidity;BME280_pressure;Samples;Min_cycle;Max_cycle;Signal;HPM_P1;HPM_P2
2022/05/13 00:01:23;;;;;;;9.55;1.48;;;;;;;;;;5065843;28;20176;-78
2022/05/13 00:03:49;;;;;;;4.97;1.10;;;;;;;;;;5065988;28;20233;-78
2022/05/13 00:06:16;;;;;;;4.55;1.00;;;;;;;;;;5066593;28;20543;-79
2022/05/13 00:08:42;;;;;;;5.70;1.20;;;;;;;;;;5056828;28;20088;-78
2022/05/13 00:11:09;;;;;;;6.20;1.02;;;;;;;;;;5064992;28;20899;-78
2022/05/13 00:13:35;;;;;;;7.10;1.20;;;;;;;;;;5065637;28;20083;-79
2022/05/13 00:16:02;;;;;;;7.25;1.13;;;;;;;;;;5060233;28;20095;-79
2022/05/13 00:18:28;;;;;;;5.40;1.27;;;;;;;;;;5063456;28;20076;-78
2022/05/13 00:20:54;;;;;;;4.63;1.35;;;;;;;;;;5060235;28;20398;-78
2022/05/13 00:23:21;;;;;;;6.20;1.23;;;;;;;;;;5064742;28;20052;-78
2022/05/13 00:25:47;;;;;;;8.98;1.42;;;;;;;;;;5066699;28;20057;-78
2022/05/13 00:28:15;;;;;;;6.03;1.60;;;;;;;;;;5065942;28;20056;-79
2022/05/13 00:30:42;;;;;;;7.75;1.65;;;;;;;;;;5066887;28;20088;-79
2022/05/13 00:33:09;;;;;;;8.13;1.63;;;;;;;;;;5059916;28;20064;-79
2022/05/13 00:35:36;;;;;;;8.30;1.70;;;;;;;;;;5066917;28;20063;-79
2022/05/13 00:38:02;;;;;;;9.98;1.63;;;;;;;;;;5064766;28;20057;-78
2022/05/13 00:40:29;;;;;;;6.70;1.50;;;;;;;;;;5058614;28;20139;-78
2022/05/13 00:43:00;;;;;;;8.15;1.60;;;;;;;;;;5074857;28;20551;-79
2022/05/13 00:45:26;;;;;;;9.15;1.60;;;;;;;;;;5065385;28;20053;-78
2022/05/13 00:47:53;;;;;;;5.38;2.03;;;;;;;;;;5065083;28;20199;-78
2022/05/13 00:50:19;;;;;;;6.47;1.30;;;;;;;;;;5065105;28;20064;-79
2022/05/13 00:52:48;;;;;;;5.65;1.30;;;;;;;;;;5063945;28;20124;-79
2022/05/13 00:55:18;;;;;;;5.30;1.33;;;;;;;;;;5065512;28;20060;-78
2022/05/13 00:57:45;;;;;;;4.43;1.02;;;;;;;;;;5065382;28;20164;-78
2022/05/13 01:00:13;;;;;;;5.32;1.40;;;;;;;;;;5064997;28;20081;-79
2022/05/13 01:02:43;;;;;;;7.22;1.40;;;;;;;;;;5066001;28;20088;-79
2022/05/13 01:05:11;;;;;;;6.60;1.20;;;;;;;;;;5065274;28;20069;-79
2022/05/13 01:07:37;;;;;;;8.18;1.40;;;;;;;;;;5063775;28;20061;-78
2022/05/13 01:10:05;;;;;;;9.48;1.60;;;;;;;;;;5058237;28;20529;-79
2022/05/13 01:12:34;;;;;;;9.82;1.80;;;;;;;;;;5066604;28;20049;-78
2022/05/13 01:15:11;;;;;;;7.60;1.65;;;;;;;;;;5062617;28;20067;-79
2022/05/13 01:20:25;;;;;;;10.43;2.10;;;;;;;;;;5060894;28;20144;-77
2022/05/13 01:22:58;;;;;;;8.13;1.77;;;;;;;;;;5059360;28;20671;-78
2022/05/13 01:25:26;;;;;;;7.22;1.45;;;;;;;;;;5066512;28;20955;-77
2022/05/13 01:27:53;;;;;;;5.00;1.63;;;;;;;;;;5065017;28;20057;-78
2022/05/13 01:30:22;;;;;;;6.85;1.60;;;;;;;;;;5062992;28;20141;-79
2022/05/13 01:32:48;;;;;;;8.20;1.75;;;;;;;;;;5071496;28;20116;-78
2022/05/13 01:35:15;;;;;;;10.57;1.98;;;;;;;;;;5061630;28;20584;-78
2022/05/13 01:37:41;;;;;;;6.05;2.20;;;;;;;;;;5058768;28;20069;-79
2022/05/13 01:40:08;;;;;;;6.40;1.58;;;;;;;;;;5060474;28;20064;-78
2022/05/13 01:42:35;;;;;;;5.13;1.67;;;;;;;;;;5046987;28;20694;-78
2022/05/13 01:45:02;;;;;;;8.20;1.55;;;;;;;;;;5064818;28;20037;-78
2022/05/13 01:47:28;;;;;;;8.20;1.67;;;;;;;;;;5063486;28;20765;-78
2022/05/13 01:49:56;;;;;;;9.68;1.75;;;;;;;;;;5053965;28;20071;-78
2022/05/13 01:52:22;;;;;;;10.80;1.67;;;;;;;;;;5060511;28;20047;-78
2022/05/13 01:54:49;;;;;;;8.43;2.10;;;;;;;;;;5064127;28;20539;-78
2022/05/13 01:57:15;;;;;;;9.65;2.17;;;;;;;;;;5057963;28;20061;-78
2022/05/13 01:59:42;;;;;;;10.85;2.10;;;;;;;;;;5062894;28;20140;-78
2022/05/13 02:02:08;;;;;;;15.45;2.42;;;;;;;;;;5061500;28;20136;-78
2022/05/13 02:04:35;;;;;;;9.43;2.20;;;;;;;;;;5061545;28;20065;-78
2022/05/13 02:07:01;;;;;;;11.13;2.10;;;;;;;;;;5061848;28;20088;-78
2022/05/13 02:09:27;;;;;;;11.05;3.30;;;;;;;;;;5066062;28;20537;-78
2022/05/13 02:11:54;;;;;;;7.30;2.20;;;;;;;;;;5061079;28;20140;-78
2022/05/13 02:14:21;;;;;;;7.10;2.25;;;;;;;;;;5050835;28;20535;-78
2022/05/13 02:16:47;;;;;;;11.70;2.50;;;;;;;;;;5061988;28;20084;-78
2022/05/13 02:19:15;;;;;;;11.88;2.65;;;;;;;;;;5061067;28;20560;-78
2022/05/13 02:21:42;;;;;;;7.63;2.25;;;;;;;;;;5061660;28;20097;-79
2022/05/13 02:24:08;;;;;;;9.73;2.40;;;;;;;;;;5063845;28;20095;-78
2022/05/13 02:26:35;;;;;;;18.33;3.28;;;;;;;;;;5063713;28;20084;-79
2022/05/13 02:29:02;;;;;;;9.63;3.08;;;;;;;;;;5064269;28;20241;-78
2022/05/13 02:31:30;;;;;;;9.77;2.70;;;;;;;;;;5061391;28;20060;-78
2022/05/13 02:33:57;;;;;;;9.68;2.70;;;;;;;;;;5064347;28;20107;-78
2022/05/13 02:36:24;;;;;;;7.00;2.17;;;;;;;;;;5062539;28;20055;-78
2022/05/13 02:38:50;;;;;;;12.75;2.65;;;;;;;;;;5063943;28;20559;-78
2022/05/13 02:41:16;;;;;;;12.13;2.75;;;;;;;;;;5054205;28;20053;-78
2022/05/13 02:43:50;;;;;;;12.80;3.25;;;;;;;;;;5062733;28;20053;-78
2022/05/13 02:46:19;;;;;;;10.85;3.05;;;;;;;;;;5058485;28;20081;-78
2022/05/13 02:48:46;;;;;;;13.15;3.20;;;;;;;;;;5054731;28;20494;-78
2022/05/13 02:51:12;;;;;;;16.67;2.92;;;;;;;;;;5062242;28;20050;-78
2022/05/13 02:53:39;;;;;;;17.13;2.97;;;;;;;;;;5065701;28;20061;-78
2022/05/13 02:56:07;;;;;;;15.80;3.20;;;;;;;;;;5067761;28;20147;-78
2022/05/13 02:58:34;;;;;;;14.25;3.50;;;;;;;;;;5070019;28;20596;-78
2022/05/13 03:01:02;;;;;;;13.88;3.78;;;;;;;;;;5072955;28;20132;-78
2022/05/13 03:03:32;;;;;;;10.98;3.33;;;;;;;;;;5072793;28;20048;-78
2022/05/13 03:05:59;;;;;;;15.75;4.43;;;;;;;;;;5059170;28;20405;-79
2022/05/13 03:08:25;;;;;;;13.23;3.50;;;;;;;;;;5066512;28;20152;-78
2022/05/13 03:10:52;;;;;;;14.55;4.30;;;;;;;;;;5067440;28;20081;-79
2022/05/13 03:13:19;;;;;;;14.10;3.28;;;;;;;;;;5062953;28;20128;-79
2022/05/13 03:15:46;;;;;;;12.75;3.90;;;;;;;;;;5070744;28;20882;-79
2022/05/13 03:18:12;;;;;;;13.57;3.78;;;;;;;;;;5059002;28;20085;-79
2022/05/13 03:20:39;;;;;;;17.00;3.90;;;;;;;;;;5066980;28;20099;-79
2022/05/13 03:23:05;;;;;;;13.40;3.80;;;;;;;;;;5066443;28;20112;-79
2022/05/13 03:25:31;;;;;;;15.32;4.20;;;;;;;;;;5070573;28;20833;-79
2022/05/13 03:27:59;;;;;;;15.90;4.15;;;;;;;;;;5069273;28;20143;-79
2022/05/13 03:30:26;;;;;;;13.75;4.53;;;;;;;;;;5067398;28;20056;-79
2022/05/13 03:32:53;;;;;;;15.05;4.25;;;;;;;;;;5074814;28;20317;-79
2022/05/13 03:35:20;;;;;;;17.35;5.00;;;;;;;;;;5071507;28;20140;-79
2022/05/13 03:37:47;;;;;;;12.68;4.53;;;;;;;;;;5068576;28;20258;-79
2022/05/13 03:40:14;;;;;;;15.57;4.15;;;;;;;;;;5065245;28;20596;-79
2022/05/13 03:42:41;;;;;;;18.50;4.40;;;;;;;;;;5071459;28;20551;-78
2022/05/13 03:45:08;;;;;;;15.00;4.75;;;;;;;;;;5070891;28;20092;-79
2022/05/13 03:47:34;;;;;;;18.27;4.63;;;;;;;;;;5070459;28;20052;-79
2022/05/13 03:50:02;;;;;;;19.88;4.50;;;;;;;;;;5073584;28;20127;-78
2022/05/13 03:52:30;;;;;;;19.23;4.50;;;;;;;;;;5068903;28;20049;-79
2022/05/13 03:54:57;;;;;;;16.65;5.13;;;;;;;;;;5070688;28;20103;-79
2022/05/13 03:57:23;;;;;;;13.60;4.18;;;;;;;;;;5062283;28;21031;-79
2022/05/13 03:59:49;;;;;;;19.52;4.65;;;;;;;;;;5065364;28;20060;-79
2022/05/13 04:02:16;;;;;;;14.13;4.90;;;;;;;;;;5062593;28;20151;-79
2022/05/13 04:10:12;;;;;;;18.17;4.90;;;;;;;;;;5065456;28;20087;-79
2022/05/13 04:18:09;;;;;;;18.83;6.32;;;;;;;;;;5065200;28;20068;-79
2022/05/13 04:20:35;;;;;;;19.10;5.15;;;;;;;;;;5070288;28;20100;-79
2022/05/13 04:23:03;;;;;;;17.48;5.07;;;;;;;;;;5069681;28;20076;-79
2022/05/13 04:25:29;;;;;;;18.92;5.00;;;;;;;;;;5067562;28;20037;-79
2022/05/13 04:27:56;;;;;;;20.50;5.75;;;;;;;;;;5069930;28;20097;-79
2022/05/13 04:30:22;;;;;;;21.13;6.00;;;;;;;;;;5066027;28;20073;-79
2022/05/13 04:32:48;;;;;;;18.20;5.15;;;;;;;;;;5067799;28;20898;-79
2022/05/13 04:35:16;;;;;;;24.27;5.88;;;;;;;;;;5067039;28;20113;-79
2022/05/13 04:37:42;;;;;;;20.05;5.90;;;;;;;;;;5071853;28;20084;-79
2022/05/13 04:40:09;;;;;;;19.90;5.43;;;;;;;;;;5069384;28;20088;-78
2022/05/13 04:42:51;;;;;;;21.42;5.47;;;;;;;;;;5071272;28;20061;-79
2022/05/13 04:45:23;;;;;;;16.88;5.22;;;;;;;;;;5068353;28;20076;-79
2022/05/13 04:50:36;;;;;;;17.83;5.35;;;;;;;;;;5070693;28;20045;-79
2022/05/13 04:53:03;;;;;;;21.48;5.40;;;;;;;;;;5070277;28;20052;-78
2022/05/13 04:55:30;;;;;;;21.80;5.88;;;;;;;;;;5066663;28;20111;-79
2022/05/13 04:57:56;;;;;;;21.27;6.15;;;;;;;;;;5066214;28;20080;-78
2022/05/13 05:00:23;;;;;;;16.77;5.00;;;;;;;;;;5068513;28;20589;-79
2022/05/13 05:02:49;;;;;;;15.73;5.30;;;;;;;;;;5066105;28;20096;-79
2022/05/13 05:05:16;;;;;;;18.90;6.25;;;;;;;;;;5068099;28;20039;-79
2022/05/13 05:07:42;;;;;;;18.23;5.53;;;;;;;;;;5071431;28;20352;-79
2022/05/13 05:10:10;;;;;;;23.85;6.00;;;;;;;;;;5064288;28;20055;-79
2022/05/13 05:12:37;;;;;;;20.13;5.82;;;;;;;;;;5049741;28;20042;-79
2022/05/13 05:15:04;;;;;;;20.85;5.45;;;;;;;;;;5064468;28;20056;-79
2022/05/13 05:17:31;;;;;;;13.77;5.35;;;;;;;;;;5066008;28;20055;-81
2022/05/13 05:19:57;;;;;;;21.33;5.88;;;;;;;;;;5066021;28;20094;-78
2022/05/13 05:22:23;;;;;;;19.38;6.28;;;;;;;;;;5063751;28;20119;-79
2022/05/13 05:24:50;;;;;;;19.48;5.50;;;;;;;;;;5068942;28;20057;-79
2022/05/13 05:27:17;;;;;;;21.95;5.85;;;;;;;;;;5068073;28;20131;-79
2022/05/13 05:29:44;;;;;;;20.55;6.15;;;;;;;;;;5067112;28;20076;-78
2022/05/13 05:32:11;;;;;;;23.40;5.93;;;;;;;;;;5072027;28;20241;-79
2022/05/13 05:34:37;;;;;;;19.73;5.93;;;;;;;;;;5061217;28;20433;-79
2022/05/13 05:37:04;;;;;;;24.02;5.63;;;;;;;;;;5066053;28;20057;-79
2022/05/13 05:39:30;;;;;;;19.80;5.38;;;;;;;;;;5065461;28;20080;-79
2022/05/13 05:41:57;;;;;;;19.90;5.85;;;;;;;;;;5069643;28;20128;-78
2022/05/13 05:44:23;;;;;;;16.52;5.65;;;;;;;;;;5052075;28;20123;-79
2022/05/13 05:46:49;;;;;;;19.15;6.32;;;;;;;;;;5076809;28;20055;-79
2022/05/13 05:49:16;;;;;;;18.80;5.97;;;;;;;;;;5078609;28;20148;-78
2022/05/13 05:51:42;;;;;;;21.30;5.97;;;;;;;;;;5067700;28;20588;-79
2022/05/13 05:59:39;;;;;;;15.25;5.53;;;;;;;;;;5083169;28;20055;-78
2022/05/13 06:02:05;;;;;;;23.00;5.95;;;;;;;;;;5067407;28;20057;-78
2022/05/13 06:04:32;;;;;;;22.52;7.43;;;;;;;;;;5068563;28;20142;-79
2022/05/13 06:06:59;;;;;;;15.27;5.35;;;;;;;;;;5060279;28;20103;-78
2022/05/13 06:09:25;;;;;;;15.90;5.88;;;;;;;;;;5061083;28;20049;-78
2022/05/13 06:11:51;;;;;;;27.45;6.47;;;;;;;;;;5057286;28;20109;-78
2022/05/13 06:14:18;;;;;;;15.07;5.32;;;;;;;;;;5066497;28;20045;-79
2022/05/13 06:16:45;;;;;;;19.50;5.43;;;;;;;;;;5069153;28;20063;-78
2022/05/13 06:19:12;;;;;;;16.17;5.28;;;;;;;;;;5066599;28;20606;-79
2022/05/13 06:21:38;;;;;;;22.70;5.75;;;;;;;;;;5060525;28;20071;-79
2022/05/13 06:24:05;;;;;;;15.55;5.45;;;;;;;;;;5065457;28;20195;-78
2022/05/13 06:26:31;;;;;;;23.38;5.40;;;;;;;;;;5066463;28;20067;-78
2022/05/13 06:28:58;;;;;;;19.55;5.22;;;;;;;;;;5061476;28;20057;-79
2022/05/13 06:31:25;;;;;;;22.33;6.20;;;;;;;;;;5071100;28;20088;-78
2022/05/13 06:33:51;;;;;;;20.85;5.22;;;;;;;;;;5068527;28;20588;-79
2022/05/13 06:36:17;;;;;;;15.63;4.95;;;;;;;;;;5070908;28;20097;-79
2022/05/13 06:38:44;;;;;;;17.48;4.40;;;;;;;;;;5060607;28;20053;-79
2022/05/13 06:41:10;;;;;;;16.08;4.53;;;;;;;;;;5068538;28;20067;-78
2022/05/13 06:43:37;;;;;;;18.48;3.67;;;;;;;;;;5073582;28;20220;-78
2022/05/13 06:46:03;;;;;;;15.00;3.47;;;;;;;;;;5066357;28;20518;-78
2022/05/13 06:48:29;;;;;;;12.77;3.03;;;;;;;;;;5058499;28;20057;-78
2022/05/13 06:50:56;;;;;;;14.73;2.80;;;;;;;;;;5058241;28;20080;-78
2022/05/13 06:53:23;;;;;;;13.65;2.25;;;;;;;;;;5063383;28;20103;-78
2022/05/13 06:55:50;;;;;;;10.50;2.30;;;;;;;;;;5057333;28;20673;-78
2022/05/13 06:58:16;;;;;;;10.63;1.90;;;;;;;;;;5063306;28;20068;-78
2022/05/13 07:00:44;;;;;;;9.23;1.73;;;;;;;;;;5060431;28;20336;-78
2022/05/13 07:03:11;;;;;;;9.20;1.98;;;;;;;;;;5057400;28;20061;-78
2022/05/13 07:05:38;;;;;;;9.23;1.60;;;;;;;;;;5048398;28;20513;-78
2022/05/13 07:08:04;;;;;;;4.40;1.40;;;;;;;;;;5064131;28;20045;-78
2022/05/13 07:10:31;;;;;;;6.28;1.50;;;;;;;;;;5066554;28;20068;-78
2022/05/13 07:12:57;;;;;;;7.28;1.60;;;;;;;;;;5066085;28;20103;-78
2022/05/13 07:15:23;;;;;;;6.90;1.80;;;;;;;;;;5060032;28;20200;-78
2022/05/13 07:17:50;;;;;;;6.15;1.50;;;;;;;;;;5061379;28;20975;-78
2022/05/13 07:20:16;;;;;;;8.25;1.33;;;;;;;;;;5062706;28;20522;-78
2022/05/13 07:22:43;;;;;;;6.10;1.60;;;;;;;;;;5051802;28;20137;-78
2022/05/13 07:25:09;;;;;;;7.82;1.27;;;;;;;;;;5069292;28;20053;-78
2022/05/13 07:27:36;;;;;;;7.75;2.40;;;;;;;;;;5066032;28;20088;-78
2022/05/13 07:30:03;;;;;;;5.05;1.45;;;;;;;;;;5058088;28;20122;-78
2022/05/13 07:32:29;;;;;;;7.93;1.65;;;;;;;;;;5064623;28;20053;-79
2022/05/13 07:34:55;;;;;;;8.35;1.70;;;;;;;;;;5064077;28;20132;-79
2022/05/13 07:37:23;;;;;;;10.35;1.50;;;;;;;;;;5061574;28;20110;-79
2022/05/13 07:42:35;;;;;;;8.90;1.45;;;;;;;;;;5064670;28;20057;-79
2022/05/13 07:45:02;;;;;;;7.28;1.77;;;;;;;;;;5069247;28;20053;-79
2022/05/13 07:47:29;;;;;;;5.38;1.10;;;;;;;;;;5068471;28;20061;-79
2022/05/13 07:49:55;;;;;;;7.22;1.40;;;;;;;;;;5075452;28;20064;-79
2022/05/13 07:52:24;;;;;;;6.55;1.17;;;;;;;;;;5066280;28;20173;-79
2022/05/13 07:54:50;;;;;;;7.03;1.50;;;;;;;;;;5063017;28;20137;-80
2022/05/13 07:57:16;;;;;;;7.10;1.75;;;;;;;;;;5059099;28;20053;-77
2022/05/13 08:02:28;;;;;;;5.38;1.38;;;;;;;;;;5064064;28;20096;-78
2022/05/13 08:04:54;;;;;;;7.45;1.40;;;;;;;;;;5061641;28;20568;-78
2022/05/13 08:07:21;;;;;;;8.25;1.70;;;;;;;;;;5064180;28;20041;-78
2022/05/13 08:09:47;;;;;;;7.43;1.40;;;;;;;;;;5066246;28;20118;-78
2022/05/13 08:12:14;;;;;;;4.80;1.35;;;;;;;;;;5053648;28;20244;-77
2022/05/13 08:14:40;;;;;;;9.45;1.70;;;;;;;;;;5058940;28;20057;-78
2022/05/13 08:17:06;;;;;;;10.50;1.50;;;;;;;;;;5061764;28;20589;-78
2022/05/13 08:19:33;;;;;;;6.13;1.67;;;;;;;;;;5046490;28;20129;-77
2022/05/13 08:22:00;;;;;;;9.52;1.70;;;;;;;;;;5059513;28;20053;-77
2022/05/13 08:24:26;;;;;;;7.68;1.40;;;;;;;;;;5065009;28;20144;-78
2022/05/13 08:26:52;;;;;;;8.45;1.48;;;;;;;;;;5056803;28;20535;-77
2022/05/13 08:29:19;;;;;;;5.78;1.27;;;;;;;;;;5058949;28;20061;-77
2022/05/13 08:31:45;;;;;;;6.10;1.38;;;;;;;;;;5071922;28;20053;-77
2022/05/13 08:34:12;;;;;;;7.90;1.10;;;;;;;;;;5063656;28;20056;-78
2022/05/13 08:36:40;;;;;;;7.13;1.38;;;;;;;;;;5065791;28;20310;-79
2022/05/13 08:39:07;;;;;;;8.77;1.38;;;;;;;;;;5065118;28;20105;-78
2022/05/13 08:41:47;;;;;;;6.72;1.20;;;;;;;;;;5066949;28;20114;-78
2022/05/13 08:44:14;;;;;;;5.00;1.30;;;;;;;;;;5067608;28;20049;-80
2022/05/13 08:46:40;;;;;;;5.82;1.35;;;;;;;;;;5066450;28;20071;-79
2022/05/13 08:49:40;;;;;;;6.40;1.35;;;;;;;;;;5060883;28;20056;-79
2022/05/13 08:53:06;;;;;;;7.75;1.38;;;;;;;;;;5059990;28;20381;-80
2022/05/13 08:54:56;;;;;;;6.68;1.33;;;;;;;;;;5063724;28;20390;-79
2022/05/13 08:57:26;;;;;;;6.93;1.50;;;;;;;;;;5065963;28;20564;-80
2022/05/13 08:59:57;;;;;;;6.38;1.10;;;;;;;;;;5070888;28;20557;-79
2022/05/13 09:02:30;;;;;;;3.92;1.08;;;;;;;;;;5066950;28;20164;-79
2022/05/13 09:05:02;;;;;;;7.55;1.30;;;;;;;;;;5061054;28;20053;-79
2022/05/13 09:07:28;;;;;;;5.70;1.27;;;;;;;;;;5060624;28;20072;-77
2022/05/13 09:10:06;;;;;;;6.03;1.35;;;;;;;;;;5062668;28;20072;-79
2022/05/13 09:12:51;;;;;;;5.47;1.30;;;;;;;;;;5053963;28;20128;-79
2022/05/13 09:15:21;;;;;;;7.10;1.13;;;;;;;;;;5060416;28;20136;-78
2022/05/13 09:18:10;;;;;;;5.72;1.30;;;;;;;;;;5057033;28;20053;-79
2022/05/13 09:20:50;;;;;;;5.95;1.27;;;;;;;;;;5049401;28;20512;-79
2022/05/13 09:23:20;;;;;;;6.10;1.17;;;;;;;;;;5068166;28;20072;-79
2022/05/13 09:26:01;;;;;;;5.57;1.30;;;;;;;;;;5058393;28;20091;-78
2022/05/13 09:28:28;;;;;;;7.63;1.45;;;;;;;;;;5063878;28;20993;-79
2022/05/13 09:31:03;;;;;;;6.40;1.48;;;;;;;;;;5059284;28;20103;-79
2022/05/13 09:33:30;;;;;;;7.68;1.50;;;;;;;;;;5060573;28;20103;-77
2022/05/13 09:35:58;;;;;;;8.90;1.77;;;;;;;;;;5059921;28;20053;-78
2022/05/13 09:38:26;;;;;;;7.22;1.70;;;;;;;;;;5060367;28;20049;-78
2022/05/13 09:40:58;;;;;;;6.30;1.50;;;;;;;;;;5056781;28;20595;-79
2022/05/13 09:43:50;;;;;;;8.20;1.33;;;;;;;;;;5057224;28;20159;-79
2022/05/13 09:46:35;;;;;;;7.22;1.90;;;;;;;;;;5061093;28;20055;-79
2022/05/13 09:49:04;;;;;;;10.38;1.50;;;;;;;;;;5056749;28;20170;-78
2022/05/13 09:51:35;;;;;;;7.57;1.20;;;;;;;;;;5059849;28;20651;-78
2022/05/13 09:54:07;;;;;;;4.68;1.40;;;;;;;;;;5069222;28;20053;-78
2022/05/13 09:56:40;;;;;;;6.65;1.60;;;;;;;;;;5062082;28;20107;-79
2022/05/13 09:59:13;;;;;;;6.85;1.58;;;;;;;;;;5063740;28;20076;-79
2022/05/13 10:01:40;;;;;;;5.93;1.40;;;;;;;;;;5060200;28;20128;-77
2022/05/13 10:04:11;;;;;;;13.13;2.05;;;;;;;;;;5061337;28;20045;-77
2022/05/13 10:06:39;;;;;;;7.32;1.30;;;;;;;;;;5060050;28;20064;-78
2022/05/13 10:15:07;;;;;;;8.93;2.15;;;;;;;;;;5063441;28;20340;-78
2022/05/13 10:17:36;;;;;;;9.05;2.00;;;;;;;;;;5058950;28;20160;-78
2022/05/13 10:20:06;;;;;;;7.95;1.77;;;;;;;;;;5076327;28;20597;-78
2022/05/13 10:23:05;;;;;;;11.52;1.90;;;;;;;;;;5060513;28;20057;-79
2022/05/13 10:25:41;;;;;;;5.22;2.03;;;;;;;;;;5049137;28;20133;-78
2022/05/13 10:28:10;;;;;;;6.20;1.90;;;;;;;;;;5055329;28;20056;-78
2022/05/13 10:30:41;;;;;;;10.40;1.88;;;;;;;;;;5061542;28;20049;-78
2022/05/13 10:33:31;;;;;;;4.70;1.40;;;;;;;;;;5053901;28;20146;-78
2022/05/13 10:36:09;;;;;;;5.27;1.50;;;;;;;;;;5021508;28;20081;-78
2022/05/13 10:38:38;;;;;;;5.75;1.60;;;;;;;;;;5062367;28;20268;-78
2022/05/13 10:41:40;;;;;;;6.60;1.70;;;;;;;;;;5062835;28;20563;-78
2022/05/13 10:44:08;;;;;;;9.48;1.60;;;;;;;;;;4976027;28;20460;-77
2022/05/13 10:46:38;;;;;;;7.10;1.70;;;;;;;;;;5033225;28;20061;-78
2022/05/13 10:49:34;;;;;;;5.85;1.60;;;;;;;;;;5075548;28;20541;-78
2022/05/13 10:52:00;;;;;;;8.18;1.55;;;;;;;;;;5059556;28;20128;-78
2022/05/13 10:54:45;;;;;;;5.60;1.52;;;;;;;;;;5061596;28;20057;-78
2022/05/13 10:57:18;;;;;;;7.45;1.92;;;;;;;;;;5054982;28;20139;-78
2022/05/13 11:00:13;;;;;;;6.53;1.40;;;;;;;;;;5055322;28;20060;-78
2022/05/13 11:02:45;;;;;;;6.38;1.60;;;;;;;;;;5038385;28;20272;-78
2022/05/13 11:05:19;;;;;;;7.13;1.73;;;;;;;;;;5062964;28;20529;-78
2022/05/13 11:07:54;;;;;;;6.30;1.58;;;;;;;;;;5061760;28;20520;-79
2022/05/13 11:10:32;;;;;;;5.95;1.50;;;;;;;;;;5064967;28;20061;-79
2022/05/13 11:13:05;;;;;;;5.47;1.60;;;;;;;;;;5064528;28;20056;-79
2022/05/13 11:15:35;;;;;;;8.40;1.90;;;;;;;;;;5066669;28;20140;-79
2022/05/13 11:18:17;;;;;;;6.45;1.90;;;;;;;;;;5064758;28;20068;-78
2022/05/13 11:20:44;;;;;;;4.63;1.60;;;;;;;;;;5056167;28;20132;-78
2022/05/13 11:23:13;;;;;;;8.43;1.80;;;;;;;;;;5068977;28;20068;-79
2022/05/13 11:25:55;;;;;;;10.32;1.80;;;;;;;;;;5070001;28;20874;-79
2022/05/13 11:28:24;;;;;;;6.95;1.67;;;;;;;;;;5069266;28;20115;-78
2022/05/13 11:31:07;;;;;;;7.35;1.77;;;;;;;;;;5072213;28;20057;-79
2022/05/13 11:33:51;;;;;;;6.90;1.60;;;;;;;;;;5071258;28;20503;-79
2022/05/13 11:36:27;;;;;;;6.18;1.52;;;;;;;;;;5068875;28;20147;-78
2022/05/13 11:39:03;;;;;;;8.43;1.67;;;;;;;;;;5069336;28;20574;-78
2022/05/13 11:41:34;;;;;;;5.05;1.52;;;;;;;;;;5069313;28;20057;-78
2022/05/13 11:44:28;;;;;;;4.32;1.30;;;;;;;;;;5069300;28;20059;-79
2022/05/13 11:46:58;;;;;;;7.55;1.83;;;;;;;;;;5062682;28;20048;-79
2022/05/13 11:49:32;;;;;;;6.57;1.58;;;;;;;;;;5069109;28;20517;-78
2022/05/13 11:52:11;;;;;;;5.63;1.67;;;;;;;;;;5067192;28;20120;-78
2022/05/13 11:54:39;;;;;;;7.78;1.70;;;;;;;;;;5069165;28;20072;-78
2022/05/13 11:57:25;;;;;;;6.03;1.48;;;;;;;;;;5068656;28;20997;-79
2022/05/13 11:59:53;;;;;;;7.28;1.55;;;;;;;;;;5069711;28;20057;-79
2022/05/13 12:02:29;;;;;;;7.70;2.20;;;;;;;;;;5068413;28;20072;-78
2022/05/13 12:05:04;;;;;;;10.48;1.90;;;;;;;;;;5069905;28;20057;-79
2022/05/13 12:07:32;;;;;;;5.55;1.40;;;;;;;;;;5065331;28;20573;-78
2022/05/13 12:10:00;;;;;;;5.68;1.42;;;;;;;;;;5047987;28;20158;-78
2022/05/13 12:12:41;;;;;;;8.07;1.80;;;;;;;;;;5060173;28;20103;-78
2022/05/13 12:15:13;;;;;;;6.00;1.20;;;;;;;;;;5044772;28;20104;-78
2022/05/13 12:17:49;;;;;;;6.28;1.80;;;;;;;;;;5047105;28;20044;-78
2022/05/13 12:20:24;;;;;;;6.10;1.45;;;;;;;;;;5065050;28;20049;-78
2022/05/13 12:23:09;;;;;;;8.60;1.92;;;;;;;;;;5063937;28;20053;-78
2022/05/13 12:25:48;;;;;;;6.00;1.45;;;;;;;;;;5062669;28;20088;-78
2022/05/13 12:28:14;;;;;;;6.05;1.50;;;;;;;;;;5062216;28;20148;-79
2022/05/13 12:30:42;;;;;;;9.38;1.60;;;;;;;;;;5046160;28;20088;-79
2022/05/13 12:33:24;;;;;;;5.60;1.40;;;;;;;;;;5083656;28;20053;-79
2022/05/13 12:38:57;;;;;;;5.70;1.60;;;;;;;;;;5045835;28;20649;-78
2022/05/13 12:41:24;;;;;;;4.95;1.27;;;;;;;;;;5044315;28;20064;-79
2022/05/13 12:43:51;;;;;;;6.60;1.55;;;;;;;;;;5053236;28;20553;-78
2022/05/13 12:46:39;;;;;;;5.03;1.30;;;;;;;;;;5061975;28;20076;-79
2022/05/13 12:49:25;;;;;;;7.40;1.58;;;;;;;;;;5045910;28;20057;-78
2022/05/13 12:52:01;;;;;;;7.68;1.65;;;;;;;;;;5045375;28;20132;-78
2022/05/13 12:54:28;;;;;;;6.05;1.40;;;;;;;;;;5045777;28;20584;-79
2022/05/13 12:56:59;;;;;;;6.28;1.42;;;;;;;;;;5044256;28;20053;-79
2022/05/13 12:59:48;;;;;;;6.05;1.30;;;;;;;;;;5048973;28;20156;-79
2022/05/13 13:02:15;;;;;;;5.95;1.50;;;;;;;;;;5049157;28;20600;-79
2022/05/13 13:04:46;;;;;;;5.72;1.17;;;;;;;;;;5066406;28;20057;-79
2022/05/13 13:07:14;;;;;;;4.57;1.50;;;;;;;;;;5067162;28;20135;-79
2022/05/13 13:09:42;;;;;;;5.85;1.23;;;;;;;;;;5066086;28;20063;-78
2022/05/13 13:12:15;;;;;;;4.85;1.50;;;;;;;;;;5065470;28;20049;-79
2022/05/13 13:14:54;;;;;;;5.95;1.50;;;;;;;;;;5067270;28;20118;-79
2022/05/13 13:17:32;;;;;;;6.07;1.27;;;;;;;;;;5067600;28;20138;-79
2022/05/13 13:19:59;;;;;;;4.43;1.20;;;;;;;;;;5067013;28;20053;-78
2022/05/13 13:22:29;;;;;;;5.45;1.38;;;;;;;;;;5067414;28;20497;-78
2022/05/13 13:24:55;;;;;;;4.75;1.30;;;;;;;;;;5059267;28;20900;-77
2022/05/13 13:27:24;;;;;;;4.72;1.30;;;;;;;;;;5028560;28;20080;-77
2022/05/13 13:29:50;;;;;;;5.95;1.48;;;;;;;;;;5046328;28;20512;-78
2022/05/13 13:32:18;;;;;;;6.80;1.40;;;;;;;;;;5059686;28;20049;-78
2022/05/13 13:34:55;;;;;;;4.97;1.45;;;;;;;;;;5055726;28;20143;-78
2022/05/13 13:37:22;;;;;;;8.85;1.52;;;;;;;;;;5046346;28;20085;-78
2022/05/13 13:39:53;;;;;;;5.13;1.33;;;;;;;;;;5062616;28;20165;-78
2022/05/13 13:42:20;;;;;;;7.20;1.65;;;;;;;;;;5046460;28;20152;-78
2022/05/13 13:44:47;;;;;;;4.50;1.58;;;;;;;;;;5062332;28;20132;-78
2022/05/13 13:47:25;;;;;;;5.63;1.30;;;;;;;;;;5045950;28;20306;-79
2022/05/13 13:49:52;;;;;;;6.65;1.30;;;;;;;;;;5046166;28;20080;-78
2022/05/13 13:52:21;;;;;;;4.95;1.40;;;;;;;;;;5046832;28;20054;-79
2022/05/13 13:54:52;;;;;;;6.30;1.38;;;;;;;;;;5062061;28;20147;-78
2022/05/13 13:57:24;;;;;;;7.63;1.30;;;;;;;;;;5062203;28;20057;-79
2022/05/13 13:59:53;;;;;;;4.75;1.30;;;;;;;;;;5062491;28;20093;-79
2022/05/13 14:02:35;;;;;;;5.70;1.40;;;;;;;;;;5062079;28;20152;-79
2022/05/13 14:05:08;;;;;;;4.82;1.30;;;;;;;;;;5062712;28;20097;-79
2022/05/13 14:07:37;;;;;;;8.32;1.40;;;;;;;;;;5066638;28;20049;-79
2022/05/13 14:10:06;;;;;;;5.63;1.45;;;;;;;;;;5066776;28;20084;-79
2022/05/13 14:12:32;;;;;;;7.25;2.17;;;;;;;;;;5069435;28;20053;-79
2022/05/13 14:15:05;;;;;;;9.35;1.55;;;;;;;;;;5068263;28;20065;-79
2022/05/13 14:17:32;;;;;;;6.80;1.90;;;;;;;;;;5068715;28;20189;-79
2022/05/13 14:20:08;;;;;;;10.13;1.92;;;;;;;;;;5066893;28;20057;-79
2022/05/13 14:22:53;;;;;;;7.25;1.45;;;;;;;;;;5065484;28;20963;-78
2022/05/13 14:25:20;;;;;;;8.68;1.70;;;;;;;;;;5064852;28;20120;-78
2022/05/13 14:27:47;;;;;;;6.45;1.88;;;;;;;;;;5063247;28;20080;-78
2022/05/13 14:30:13;;;;;;;7.57;1.77;;;;;;;;;;5064562;28;20077;-78
2022/05/13 14:32:43;;;;;;;7.30;2.10;;;;;;;;;;5064551;28;20262;-78
2022/05/13 14:35:14;;;;;;;6.10;2.28;;;;;;;;;;5064375;28;20602;-79
2022/05/13 14:37:49;;;;;;;7.88;1.80;;;;;;;;;;5046199;28;20053;-78
2022/05/13 14:40:19;;;;;;;5.80;1.73;;;;;;;;;;5043627;28;20124;-79
2022/05/13 14:42:48;;;;;;;5.97;2.00;;;;;;;;;;5053875;28;20057;-77
2022/05/13 14:45:27;;;;;;;8.87;2.43;;;;;;;;;;5062210;28;20640;-78
2022/05/13 14:48:09;;;;;;;9.43;2.45;;;;;;;;;;5050831;28;20085;-78
2022/05/13 14:50:40;;;;;;;6.25;2.42;;;;;;;;;;5045982;28;20053;-78
2022/05/13 14:53:12;;;;;;;7.80;2.20;;;;;;;;;;5045474;28;20157;-78
2022/05/13 14:55:43;;;;;;;7.35;2.30;;;;;;;;;;5044934;28;20971;-78
2022/05/13 14:58:21;;;;;;;6.63;1.90;;;;;;;;;;5045939;28;20148;-78
2022/05/13 15:00:50;;;;;;;7.80;1.90;;;;;;;;;;5045871;28;20045;-78
2022/05/13 15:03:21;;;;;;;6.13;2.00;;;;;;;;;;5047725;28;20081;-79
2022/05/13 15:05:47;;;;;;;8.27;2.10;;;;;;;;;;5046084;28;20050;-78
2022/05/13 15:08:32;;;;;;;11.15;2.22;;;;;;;;;;5048958;28;20236;-78
2022/05/13 15:10:58;;;;;;;8.45;2.03;;;;;;;;;;5065355;28;20057;-79
2022/05/13 15:13:25;;;;;;;7.32;2.25;;;;;;;;;;5082819;28;20099;-78
2022/05/13 15:15:53;;;;;;;8.18;1.77;;;;;;;;;;5064051;28;20672;-78
2022/05/13 15:18:20;;;;;;;8.88;2.00;;;;;;;;;;5063139;28;20105;-78
2022/05/13 15:20:46;;;;;;;5.68;1.70;;;;;;;;;;5062225;28;20522;-78
2022/05/13 15:23:12;;;;;;;7.63;1.98;;;;;;;;;;5047025;28;20067;-78
2022/05/13 15:25:43;;;;;;;5.43;1.80;;;;;;;;;;5047500;28;20152;-78
2022/05/13 15:28:13;;;;;;;8.40;1.67;;;;;;;;;;5046637;28;20076;-77
2022/05/13 15:30:40;;;;;;;5.93;1.63;;;;;;;;;;5046443;28;20068;-80